POGODA: Poland

Lotnisko: Szczecin-Goleniow

METAR KOD: EPSC


METAR: EPSC 011300Z 07004KT 5000 -RA BR BKN007 16/15 Q1017


BLOK
Pogoda METAR
011300Z
Dzien: 01, Godzina: 13:00 UTC.
07004KT
Wiatr z kierunku 070, o predkosci 7 km/h
5000
Widzialnosc pozioma 5000 m.
-RA
slab. deszcz
BR
zamglenia
BKN007
5/8 - 7/8 pokrycia nieba, chmurami o podstawie: 210 metrow
16/15
Temperatura: powietrze 16°C, punkt rosy 15°C . Wilgotnosc wzgledna 94 %
Q1017
Cisnienie: 1017 hPa

Pogoda na innym lotnisku

Pogoda Gdansk-Rebiechowo WEATHER Poland  
Pogoda Katowice WEATHER Poland  
Pogoda Krakow WEATHER Poland  
Pogoda Poznan WEATHER Poland  
Pogoda Rzeszow-Jasionka WEATHER Poland  
Pogoda Szczecin WEATHER Poland  
Pogoda Warszawa-Okecie WEATHER Poland  
Pogoda Wroclaw Ii WEATHER Poland  

Pogoda w inny kraju

Strona startowa

(C) by GREGOR 2007
Ogłoszenia Towarzyskie